< < Back
Terminal Aerodrome Forecast


Current Version              Previous Versions:   1  2  3  4  5  6  7  8  9  

Terminal Aerodrome Forecast

458
FTUS44 KMRX 071136
TAFTYS
TAF
KTYS 071136Z 0712/0812 00000KT P6SM SCT020 BKN045
      TEMPO 0712/0714 BKN025
     FM071400 23008KT P6SM SCT035 BKN100
     FM071900 24011G20KT P6SM SCT050 SCT120
     FM080100 23006KT P6SM FEW060 SCT250
     FM081000 22005KT 5SM BR BKN250=



Latest METAR

105
SAUS80 KWBC 071500
MTRTYS
METAR KTYS 071453Z 22010KT 10SM BKN020 OVC200 27/22 A3015 RMK AO2 SLP198
T02670217 50002


USA.gov is the U.S. government's official web portal to all federal, state and local government web resources and services.